Time;durP1;ratioP1;P1;durP2;ratioP2;P2;SDS_P1;SDS_P2;PMS_P1;PMS_P2;Temp;Humidity;BMP_temperature;BMP_pressure;BME280_temperature;BME280_humidity;BME280_pressure;Samples;Min_cycle;Max_cycle;Signal;HPM_P1;HPM_P2
2023/01/19 00:02:23;;;;;;;11.30;10.10;;;2.90;99.90;;;;;;4991338;28;20176;-50
2023/01/19 00:04:48;;;;;;;11.67;10.47;;;2.80;99.90;;;;;;4990959;28;20279;-50
2023/01/19 00:07:14;;;;;;;11.20;10.10;;;2.70;99.90;;;;;;5008572;28;20169;-51
2023/01/19 00:09:40;;;;;;;12.27;10.97;;;2.60;99.90;;;;;;5013651;28;20167;-50
2023/01/19 00:12:05;;;;;;;12.57;10.43;;;2.50;99.90;;;;;;5014233;28;20419;-51
2023/01/19 00:14:31;;;;;;;12.13;10.87;;;2.70;99.90;;;;;;5014202;28;20179;-50
2023/01/19 00:16:57;;;;;;;11.07;9.80;;;2.90;99.90;;;;;;5012978;28;20179;-51
2023/01/19 00:19:23;;;;;;;12.83;10.77;;;2.90;99.90;;;;;;5014404;28;20173;-50
2023/01/19 00:21:48;;;;;;;15.43;10.30;;;2.90;99.90;;;;;;5014005;28;20526;-52
2023/01/19 00:24:14;;;;;;;11.60;10.40;;;2.90;99.90;;;;;;5014015;28;20783;-50
2023/01/19 00:26:41;;;;;;;11.13;10.03;;;3.00;99.90;;;;;;5013904;28;20658;-52
2023/01/19 00:29:09;;;;;;;11.80;10.60;;;3.10;99.90;;;;;;5014412;28;20225;-53
2023/01/19 00:31:35;;;;;;;12.30;11.00;;;3.10;99.90;;;;;;5013928;28;20230;-53
2023/01/19 00:34:01;;;;;;;10.10;9.10;;;3.20;99.90;;;;;;5013722;28;20168;-50
2023/01/19 00:36:26;;;;;;;11.57;10.37;;;3.30;99.90;;;;;;5013947;28;20172;-51
2023/01/19 00:38:52;;;;;;;13.27;10.60;;;3.50;99.90;;;;;;5014034;28;20200;-51
2023/01/19 00:41:17;;;;;;;11.57;10.13;;;3.60;99.90;;;;;;4995476;28;20193;-50
2023/01/19 00:43:43;;;;;;;11.77;10.57;;;3.50;99.90;;;;;;4993932;28;20189;-50
2023/01/19 00:46:09;;;;;;;11.53;10.30;;;3.40;99.90;;;;;;4994094;28;20634;-51
2023/01/19 00:48:34;;;;;;;11.00;9.90;;;3.20;99.90;;;;;;4994197;28;20173;-51
2023/01/19 00:51:00;;;;;;;11.70;10.50;;;3.20;99.90;;;;;;4994069;28;20901;-50
2023/01/19 00:53:27;;;;;;;11.47;10.17;;;3.10;99.90;;;;;;4994150;28;20180;-50
2023/01/19 00:55:53;;;;;;;10.77;9.67;;;2.90;99.90;;;;;;4994010;28;20177;-51
2023/01/19 00:58:20;;;;;;;12.13;10.93;;;2.80;99.90;;;;;;4994161;28;20207;-50
2023/01/19 01:00:45;;;;;;;11.83;10.63;;;2.70;99.90;;;;;;4993811;28;20250;-51
2023/01/19 01:03:11;;;;;;;12.13;10.83;;;2.70;99.90;;;;;;4993913;28;20583;-50
2023/01/19 01:05:40;;;;;;;12.10;10.77;;;2.90;99.90;;;;;;4993540;28;20312;-50
2023/01/19 01:08:05;;;;;;;11.60;10.40;;;2.90;99.90;;;;;;4993943;28;20161;-54
2023/01/19 01:10:31;;;;;;;11.53;10.40;;;2.90;99.90;;;;;;4993680;28;20192;-53
2023/01/19 01:12:57;;;;;;;11.87;10.37;;;3.00;99.90;;;;;;4993894;28;20188;-51
2023/01/19 01:15:22;;;;;;;12.07;10.00;;;3.10;99.90;;;;;;4993420;28;20176;-50
2023/01/19 01:17:48;;;;;;;11.80;10.53;;;3.00;99.90;;;;;;4993608;28;20169;-50
2023/01/19 01:20:24;;;;;;;12.30;11.00;;;2.90;99.90;;;;;;4993095;28;20195;-51
2023/01/19 01:22:52;;;;;;;11.23;10.10;;;3.00;99.90;;;;;;4993570;28;20213;-50
2023/01/19 01:25:21;;;;;;;11.63;10.43;;;3.00;99.90;;;;;;4993230;28;20530;-49
2023/01/19 01:27:46;;;;;;;13.40;11.70;;;2.80;99.90;;;;;;4993585;28;20408;-51
2023/01/19 01:30:14;;;;;;;12.87;11.30;;;2.60;99.90;;;;;;4993337;28;20208;-50
2023/01/19 01:32:40;;;;;;;11.77;10.57;;;2.50;99.90;;;;;;4993322;28;20161;-51
2023/01/19 01:35:07;;;;;;;13.43;10.53;;;2.40;99.90;;;;;;4993157;28;20170;-50
2023/01/19 01:37:34;;;;;;;13.17;11.73;;;2.40;99.90;;;;;;4993207;28;20191;-51
2023/01/19 01:39:59;;;;;;;11.47;10.23;;;2.60;99.90;;;;;;4993238;28;20420;-50
2023/01/19 01:42:27;;;;;;;12.30;11.00;;;2.70;99.90;;;;;;4993096;28;20685;-51
2023/01/19 01:44:55;;;;;;;12.60;11.30;;;2.90;99.90;;;;;;4991495;28;20228;-51
2023/01/19 01:47:44;;;;;;;12.37;11.07;;;3.10;99.90;;;;;;4993221;28;20690;-52
2023/01/19 01:50:16;;;;;;;11.33;10.13;;;3.10;99.90;;;;;;4989886;28;20267;-51
2023/01/19 01:52:51;;;;;;;11.43;10.23;;;3.10;99.90;;;;;;4993042;28;20400;-51
2023/01/19 01:55:18;;;;;;;11.40;10.20;;;3.20;99.90;;;;;;4992611;28;20796;-51
2023/01/19 01:57:49;;;;;;;11.70;10.50;;;3.30;99.90;;;;;;4992579;28;20423;-50
2023/01/19 02:00:15;;;;;;;11.87;10.57;;;3.40;99.90;;;;;;4992930;28;20290;-50
2023/01/19 02:02:50;;;;;;;12.17;10.87;;;3.30;99.90;;;;;;4992644;28;20262;-51
2023/01/19 02:05:32;;;;;;;11.27;9.73;;;3.40;99.90;;;;;;4992488;28;20207;-50
2023/01/19 02:13:42;;;;;;;11.90;10.63;;;3.50;99.90;;;;;;4992526;28;20227;-50
2023/01/19 02:16:09;;;;;;;12.20;10.90;;;3.50;99.90;;;;;;4992581;28;20173;-50
2023/01/19 02:18:36;;;;;;;11.67;10.47;;;3.50;99.90;;;;;;4992330;28;20177;-51
2023/01/19 02:21:13;;;;;;;11.63;10.43;;;3.60;99.90;;;;;;4992560;28;20280;-51
2023/01/19 02:23:44;;;;;;;11.47;10.30;;;3.70;99.90;;;;;;4992087;28;20196;-51
2023/01/19 02:26:19;;;;;;;11.77;10.37;;;3.90;99.90;;;;;;4992377;28;20165;-51
2023/01/19 02:28:49;;;;;;;13.00;10.67;;;3.80;99.90;;;;;;4991169;28;20168;-51
2023/01/19 02:31:16;;;;;;;12.17;10.87;;;3.70;99.90;;;;;;4991590;28;20208;-51
2023/01/19 02:33:42;;;;;;;11.53;10.33;;;3.40;99.90;;;;;;4991759;28;20630;-51
2023/01/19 02:36:10;;;;;;;11.33;10.13;;;3.40;99.90;;;;;;4992289;28;20199;-50
2023/01/19 02:38:37;;;;;;;11.43;10.23;;;3.10;99.90;;;;;;4992246;28;20200;-51
2023/01/19 02:41:06;;;;;;;11.63;10.43;;;3.10;99.90;;;;;;4991873;28;20545;-51
2023/01/19 02:43:33;;;;;;;11.80;10.23;;;3.10;99.90;;;;;;4991713;28;20448;-50
2023/01/19 02:45:58;;;;;;;12.63;11.33;;;3.20;99.90;;;;;;4990449;28;20420;-52
2023/01/19 02:48:24;;;;;;;13.17;10.07;;;3.30;99.90;;;;;;4992086;28;20169;-50
2023/01/19 02:50:59;;;;;;;11.57;10.30;;;3.20;99.90;;;;;;4991967;28;20550;-51
2023/01/19 02:53:40;;;;;;;13.17;10.50;;;3.10;99.90;;;;;;4992052;28;20529;-50
2023/01/19 02:56:26;;;;;;;13.30;10.20;;;3.20;99.90;;;;;;4991881;28;20160;-51
2023/01/19 02:59:36;;;;;;;11.87;9.80;;;3.10;99.90;;;;;;4992142;28;20220;-51
2023/01/19 03:02:41;;;;;;;11.73;10.50;;;3.00;99.90;;;;;;4931609;29;20410;-52
2023/01/19 03:05:15;;;;;;;11.97;10.43;;;3.00;99.90;;;;;;4874742;29;20567;-50
2023/01/19 03:08:22;;;;;;;12.57;10.67;;;2.90;99.90;;;;;;4875135;29;20433;-50
2023/01/19 03:11:00;;;;;;;13.30;10.60;;;2.90;99.90;;;;;;4867766;29;20841;-50
2023/01/19 03:13:31;;;;;;;11.47;10.27;;;3.10;99.90;;;;;;4874965;29;20508;-51
2023/01/19 03:16:12;;;;;;;13.17;11.30;;;3.30;99.90;;;;;;4875002;29;20451;-51
2023/01/19 03:18:41;;;;;;;12.13;10.83;;;3.20;99.90;;;;;;4874636;29;20441;-50
2023/01/19 03:21:08;;;;;;;11.97;10.47;;;3.10;99.90;;;;;;4875024;29;20457;-50
2023/01/19 03:23:37;;;;;;;11.57;10.27;;;3.10;99.90;;;;;;4874229;29;20461;-52
2023/01/19 03:26:07;;;;;;;10.87;9.77;;;3.00;99.90;;;;;;4874962;29;20513;-52
2023/01/19 03:28:35;;;;;;;11.43;10.23;;;3.00;99.90;;;;;;4874947;29;20410;-50
2023/01/19 03:31:12;;;;;;;11.50;10.30;;;3.00;99.90;;;;;;4874709;29;20453;-51
2023/01/19 03:33:42;;;;;;;10.27;9.17;;;3.20;99.90;;;;;;4874729;29;20476;-50
2023/01/19 03:36:12;;;;;;;11.10;9.70;;;3.00;99.90;;;;;;4909249;29;20438;-51
2023/01/19 03:38:41;;;;;;;10.80;9.57;;;3.00;99.90;;;;;;4963920;28;20422;-52
2023/01/19 03:41:14;;;;;;;10.80;9.27;;;3.00;99.90;;;;;;4991299;28;20485;-54
2023/01/19 03:43:40;;;;;;;10.77;9.63;;;3.00;99.90;;;;;;4994018;28;20470;-51
2023/01/19 03:46:07;;;;;;;11.03;9.87;;;3.10;99.90;;;;;;4994022;28;20408;-50
2023/01/19 03:48:33;;;;;;;12.20;10.40;;;2.80;99.90;;;;;;4995474;28;20181;-54
2023/01/19 03:51:08;;;;;;;12.43;9.83;;;2.70;99.90;;;;;;4994892;28;20424;-52
2023/01/19 03:53:33;;;;;;;11.43;10.17;;;2.70;99.90;;;;;;4995168;28;20407;-50
2023/01/19 03:55:59;;;;;;;11.27;9.90;;;2.70;99.90;;;;;;4995064;28;20739;-51
2023/01/19 03:58:25;;;;;;;11.90;10.17;;;2.70;99.90;;;;;;4995110;28;20204;-51
2023/01/19 04:00:50;;;;;;;12.30;10.60;;;2.80;99.90;;;;;;4995101;28;20273;-51
2023/01/19 04:03:17;;;;;;;18.33;10.67;;;2.70;99.90;;;;;;4995180;28;20200;-52
2023/01/19 04:05:43;;;;;;;11.83;10.63;;;2.60;99.90;;;;;;4994543;28;20181;-52
2023/01/19 04:08:09;;;;;;;12.37;9.80;;;2.50;99.90;;;;;;4994806;28;20984;-51
2023/01/19 04:10:35;;;;;;;13.50;10.53;;;2.50;99.90;;;;;;4994825;28;20420;-53
2023/01/19 04:13:01;;;;;;;13.13;11.17;;;2.50;99.90;;;;;;4994918;28;20204;-50
2023/01/19 04:15:28;;;;;;;13.33;10.67;;;2.60;99.90;;;;;;4994565;28;20401;-51
2023/01/19 04:17:55;;;;;;;13.30;10.57;;;2.60;99.90;;;;;;4994694;28;20885;-52
2023/01/19 04:20:21;;;;;;;15.20;11.10;;;2.60;99.90;;;;;;4993544;28;20439;-54
2023/01/19 04:22:47;;;;;;;12.60;10.97;;;2.50;99.90;;;;;;4994742;28;20503;-51
2023/01/19 04:25:13;;;;;;;12.10;10.43;;;2.40;99.90;;;;;;4994439;28;20535;-51
2023/01/19 04:27:38;;;;;;;12.33;10.07;;;2.40;99.90;;;;;;4994366;28;20434;-52
2023/01/19 04:30:05;;;;;;;12.27;10.60;;;2.50;99.90;;;;;;4994504;28;20196;-55
2023/01/19 04:32:31;;;;;;;13.57;11.07;;;2.50;99.90;;;;;;4994516;28;20292;-53
2023/01/19 04:34:58;;;;;;;13.87;11.03;;;2.60;99.90;;;;;;4994351;28;20181;-53
2023/01/19 04:37:24;;;;;;;13.43;10.63;;;2.60;99.90;;;;;;4994287;28;20405;-54
2023/01/19 04:39:49;;;;;;;15.60;11.80;;;3.60;99.90;;;;;;4993127;28;20963;-53
2023/01/19 04:42:15;;;;;;;13.30;11.43;;;2.50;99.90;;;;;;4994190;28;20176;-52
2023/01/19 04:44:41;;;;;;;15.37;11.20;;;2.50;99.90;;;;;;4994107;28;20193;-54
2023/01/19 04:47:07;;;;;;;14.13;11.07;;;2.40;99.90;;;;;;4994481;28;20927;-53
2023/01/19 04:49:32;;;;;;;13.73;11.37;;;2.50;99.90;;;;;;4994254;28;20170;-50
2023/01/19 04:51:58;;;;;;;14.50;12.00;;;2.50;99.90;;;;;;4994334;28;20256;-50
2023/01/19 04:54:24;;;;;;;13.43;11.47;;;2.30;99.90;;;;;;4992969;28;20165;-52
2023/01/19 04:56:50;;;;;;;13.67;10.63;;;2.30;99.90;;;;;;4993991;28;20197;-51
2023/01/19 04:59:15;;;;;;;12.60;10.40;;;2.20;99.90;;;;;;4993895;28;20251;-51
2023/01/19 05:01:41;;;;;;;12.40;10.50;;;2.10;99.90;;;;;;4994013;28;20476;-51
2023/01/19 05:04:07;;;;;;;13.20;11.43;;;2.20;99.90;;;;;;4993630;28;20288;-51
2023/01/19 05:06:33;;;;;;;11.57;9.57;;;2.40;99.90;;;;;;4993980;28;20161;-51
2023/01/19 05:08:59;;;;;;;12.30;9.93;;;2.40;99.90;;;;;;4993608;28;20176;-52
2023/01/19 05:11:24;;;;;;;12.80;10.53;;;2.50;99.90;;;;;;4993790;28;20444;-50
2023/01/19 05:13:50;;;;;;;11.67;9.90;;;2.50;99.90;;;;;;4993466;28;20170;-50
2023/01/19 05:16:15;;;;;;;14.77;10.50;;;2.60;99.90;;;;;;4993736;28;20169;-51
2023/01/19 05:18:41;;;;;;;13.43;10.63;;;2.60;99.90;;;;;;4993823;28;20227;-51
2023/01/19 05:21:06;;;;;;;12.00;9.80;;;2.70;99.90;;;;;;4993460;28;20193;-54
2023/01/19 05:23:33;;;;;;;12.27;9.73;;;2.60;99.90;;;;;;4993485;28;20192;-51
2023/01/19 05:26:00;;;;;;;13.00;9.57;;;2.50;99.90;;;;;;4993412;28;20165;-51
2023/01/19 05:28:27;;;;;;;12.97;10.07;;;2.60;99.90;;;;;;4993696;28;20453;-51
2023/01/19 05:30:53;;;;;;;11.33;8.90;;;2.60;99.90;;;;;;5064736;23;20546;-52
2023/01/19 05:33:20;;;;;;;12.77;9.60;;;2.70;99.90;;;;;;4997740;28;20539;-54
2023/01/19 05:35:48;;;;;;;11.10;8.83;;;2.70;99.90;;;;;;5009938;28;20165;-52
2023/01/19 05:38:13;;;;;;;11.30;8.90;;;2.70;99.90;;;;;;5012756;28;20407;-52
2023/01/19 05:40:39;;;;;;;11.43;9.17;;;2.60;99.90;;;;;;5003631;28;20454;-49
2023/01/19 05:43:04;;;;;;;12.60;9.57;;;2.40;99.90;;;;;;4992913;28;20701;-52
2023/01/19 05:45:30;;;;;;;11.83;9.23;;;2.40;99.90;;;;;;4992742;28;20180;-51
2023/01/19 05:47:55;;;;;;;12.00;9.37;;;2.50;99.90;;;;;;4992445;28;20260;-52
2023/01/19 05:50:21;;;;;;;12.77;9.90;;;2.80;99.90;;;;;;4987973;28;20177;-52
2023/01/19 05:52:47;;;;;;;14.67;9.47;;;3.00;99.90;;;;;;4992765;28;20196;-51
2023/01/19 05:55:13;;;;;;;13.10;9.03;;;3.10;99.90;;;;;;4992726;28;20173;-52
2023/01/19 05:57:39;;;;;;;12.43;9.13;;;3.10;99.90;;;;;;4992815;28;20680;-53
2023/01/19 06:00:06;;;;;;;10.90;9.20;;;3.10;99.90;;;;;;4992933;28;20400;-52
2023/01/19 06:02:32;;;;;;;10.23;8.77;;;3.10;99.90;;;;;;4992797;28;20193;-53
2023/01/19 06:04:57;;;;;;;10.97;8.77;;;3.00;99.90;;;;;;4992440;28;20941;-53
2023/01/19 06:07:23;;;;;;;10.20;8.57;;;3.00;99.90;;;;;;4989762;28;20169;-54
2023/01/19 06:09:48;;;;;;;11.40;9.10;;;2.80;99.90;;;;;;4993087;28;20216;-53
2023/01/19 06:12:14;;;;;;;13.03;9.57;;;2.80;99.90;;;;;;4993018;28;20189;-50
2023/01/19 06:14:39;;;;;;;10.97;9.20;;;2.70;99.90;;;;;;4991929;28;20579;-51
2023/01/19 06:17:06;;;;;;;10.47;8.87;;;2.50;99.90;;;;;;4992011;28;20177;-51
2023/01/19 06:19:32;;;;;;;11.97;9.97;;;2.20;99.90;;;;;;4992390;28;20260;-51
2023/01/19 06:21:58;;;;;;;10.73;8.77;;;2.10;99.90;;;;;;4984299;28;20429;-50
2023/01/19 06:24:24;;;;;;;12.63;9.77;;;2.10;99.90;;;;;;4972427;28;20456;-53
2023/01/19 06:26:49;;;;;;;11.17;9.27;;;2.00;99.90;;;;;;4973025;28;20166;-54
2023/01/19 06:29:15;;;;;;;13.47;10.00;;;2.10;99.90;;;;;;4973029;28;20185;-52
2023/01/19 06:31:41;;;;;;;12.00;9.20;;;2.30;99.90;;;;;;4973096;28;20213;-49
2023/01/19 06:34:07;;;;;;;11.60;8.43;;;2.40;99.90;;;;;;4972914;28;20278;-53
2023/01/19 06:36:32;;;;;;;14.00;9.23;;;2.60;99.90;;;;;;4972978;28;20541;-54
2023/01/19 06:38:59;;;;;;;11.77;9.67;;;2.70;99.90;;;;;;4972957;28;20169;-51
2023/01/19 06:41:24;;;;;;;13.37;9.63;;;2.70;99.90;;;;;;4988468;28;20216;-52
2023/01/19 06:43:50;;;;;;;12.30;8.60;;;2.60;99.90;;;;;;4992171;28;20456;-51
2023/01/19 06:46:15;;;;;;;11.20;8.83;;;2.60;99.90;;;;;;4992290;28;20169;-53
2023/01/19 06:48:41;;;;;;;11.07;9.27;;;2.60;99.90;;;;;;4990518;28;20224;-52
2023/01/19 06:51:06;;;;;;;11.80;9.27;;;2.70;99.90;;;;;;4991356;28;20193;-51
2023/01/19 06:53:32;;;;;;;13.73;9.90;;;2.80;99.90;;;;;;4992322;28;20181;-51
2023/01/19 06:56:00;;;;;;;11.13;8.90;;;2.90;99.90;;;;;;4991930;28;20205;-52
2023/01/19 06:58:27;;;;;;;10.60;9.20;;;3.00;99.90;;;;;;4992389;28;20228;-49
2023/01/19 07:00:52;;;;;;;12.47;9.57;;;3.10;99.90;;;;;;4992132;28;20428;-52
2023/01/19 07:03:21;;;;;;;12.50;9.30;;;3.10;99.90;;;;;;4992200;28;20464;-50
2023/01/19 07:05:50;;;;;;;12.50;9.23;;;3.10;99.90;;;;;;4991817;28;20161;-49
2023/01/19 07:08:16;;;;;;;11.20;9.77;;;3.00;99.90;;;;;;4992231;28;20388;-52
2023/01/19 07:10:41;;;;;;;11.93;9.13;;;3.00;99.90;;;;;;4991865;28;20411;-50
2023/01/19 07:13:07;;;;;;;11.40;9.17;;;3.00;99.90;;;;;;4991970;28;20177;-51
2023/01/19 07:15:32;;;;;;;10.20;8.37;;;3.00;99.90;;;;;;4987225;28;20249;-53
2023/01/19 07:17:58;;;;;;;12.17;9.70;;;3.00;99.90;;;;;;4972008;28;20186;-51
2023/01/19 07:20:24;;;;;;;12.47;9.77;;;2.90;99.90;;;;;;4972747;28;20169;-52
2023/01/19 07:22:55;;;;;;;14.03;9.33;;;2.80;99.90;;;;;;4972447;28;20186;-52
2023/01/19 07:25:21;;;;;;;11.70;9.20;;;2.80;99.90;;;;;;4972238;28;20208;-53
2023/01/19 07:27:46;;;;;;;18.53;13.37;;;2.80;99.90;;;;;;4972413;28;20444;-52
2023/01/19 07:30:14;;;;;;;12.10;9.87;;;2.60;99.90;;;;;;4972561;28;20209;-51
2023/01/19 07:32:41;;;;;;;43.90;29.93;;;2.70;99.90;;;;;;4972276;28;20209;-54
2023/01/19 07:35:10;;;;;;;13.70;10.20;;;2.70;99.90;;;;;;4972553;28;20918;-53
2023/01/19 07:37:35;;;;;;;30.60;23.03;;;2.70;99.90;;;;;;4972313;28;20424;-53
2023/01/19 07:40:01;;;;;;;15.33;11.53;;;2.70;99.90;;;;;;4972021;28;20417;-50
2023/01/19 07:42:26;;;;;;;12.17;10.37;;;2.70;99.90;;;;;;4972194;28;20193;-49
2023/01/19 07:44:52;;;;;;;12.77;10.43;;;2.70;99.90;;;;;;4971830;28;20204;-52
2023/01/19 07:47:18;;;;;;;20.33;14.43;;;2.70;99.90;;;;;;4972444;28;20240;-52
2023/01/19 07:49:43;;;;;;;60.67;32.90;;;2.80;99.90;;;;;;4976271;28;20630;-52
2023/01/19 07:52:09;;;;;;;26.90;20.53;;;2.80;99.90;;;;;;4991740;28;20287;-52
2023/01/19 07:54:35;;;;;;;16.33;11.60;;;2.80;99.90;;;;;;4991394;28;20176;-50
2023/01/19 07:57:00;;;;;;;14.70;10.70;;;2.80;99.90;;;;;;4991637;28;20204;-51
2023/01/19 07:59:29;;;;;;;13.90;11.70;;;2.70;99.90;;;;;;4991161;28;20415;-54
2023/01/19 08:01:54;;;;;;;15.10;11.20;;;2.70;99.90;;;;;;4991522;28;20383;-53
2023/01/19 08:04:20;;;;;;;13.33;11.03;;;2.60;99.90;;;;;;4991192;28;20539;-51
2023/01/19 08:06:46;;;;;;;14.23;11.53;;;2.70;99.90;;;;;;4991658;28;20525;-52
2023/01/19 08:09:12;;;;;;;15.60;10.97;;;2.60;99.90;;;;;;4991444;28;20177;-51
2023/01/19 08:11:38;;;;;;;13.67;11.13;;;2.80;99.90;;;;;;4991501;28;20436;-53
2023/01/19 08:14:03;;;;;;;12.93;11.17;;;2.80;99.90;;;;;;4991384;28;20757;-52
2023/01/19 08:16:29;;;;;;;12.33;10.43;;;3.00;99.90;;;;;;4991393;28;20200;-52
2023/01/19 08:18:55;;;;;;;14.70;12.03;;;2.90;99.90;;;;;;4991521;28;20209;-51
2023/01/19 08:21:20;;;;;;;14.70;11.73;;;2.80;99.90;;;;;;4990179;28;20309;-51
2023/01/19 08:23:56;;;;;;;16.17;12.63;;;2.40;99.90;;;;;;4991113;28;20243;-50
2023/01/19 08:26:33;;;;;;;17.43;12.50;;;2.20;99.90;;;;;;4991275;28;20173;-50
2023/01/19 08:29:02;;;;;;;17.47;11.90;;;1.90;99.90;;;;;;4991847;28;20447;-53
2023/01/19 08:31:28;;;;;;;15.10;12.47;;;2.00;99.90;;;;;;4994655;28;20436;-52
2023/01/19 08:33:54;;;;;;;19.10;12.47;;;1.90;99.90;;;;;;4994530;28;20492;-51
2023/01/19 08:36:21;;;;;;;17.53;12.60;;;2.00;99.90;;;;;;4994641;28;20404;-52
2023/01/19 08:38:47;;;;;;;15.07;12.33;;;1.90;99.90;;;;;;4994889;28;20226;-52
2023/01/19 08:41:14;;;;;;;16.30;13.00;;;1.80;99.90;;;;;;4994438;28;20870;-54
2023/01/19 08:43:40;;;;;;;18.77;13.93;;;2.00;99.90;;;;;;4994425;28;20193;-52
2023/01/19 08:46:05;;;;;;;14.70;12.73;;;2.10;99.90;;;;;;4993331;28;20427;-51
2023/01/19 08:48:31;;;;;;;14.67;12.57;;;2.30;99.90;;;;;;4994388;28;20176;-52
2023/01/19 08:50:58;;;;;;;17.33;12.90;;;2.20;99.90;;;;;;4994549;28;20260;-55
2023/01/19 08:53:23;;;;;;;17.23;12.40;;;2.20;99.90;;;;;;4994359;28;20652;-52
2023/01/19 08:55:53;;;;;;;15.00;11.77;;;1.90;99.90;;;;;;4994435;28;20411;-54
2023/01/19 08:58:19;;;;;;;14.87;12.53;;;1.70;99.90;;;;;;4994297;28;20165;-52
2023/01/19 09:00:44;;;;;;;15.63;13.00;;;1.60;99.90;;;;;;4994358;28;20410;-53
2023/01/19 09:03:12;;;;;;;14.27;11.20;;;1.50;99.90;;;;;;4994213;28;20181;-54
2023/01/19 09:05:38;;;;;;;13.90;10.87;;;1.60;99.90;;;;;;4993968;28;20574;-54
2023/01/19 09:08:07;;;;;;;15.80;12.20;;;1.70;99.90;;;;;;4994126;28;20420;-55
2023/01/19 09:10:36;;;;;;;16.27;12.57;;;1.70;99.90;;;;;;4994320;28;20169;-55
2023/01/19 09:13:08;;;;;;;13.40;11.10;;;1.70;99.90;;;;;;4993985;28;20415;-54
2023/01/19 09:15:36;;;;;;;13.97;11.47;;;1.80;99.90;;;;;;4993841;28;20420;-54
2023/01/19 09:18:02;;;;;;;12.90;11.50;;;1.70;99.90;;;;;;4994043;28;20417;-54
2023/01/19 09:20:29;;;;;;;14.93;11.33;;;1.90;99.90;;;;;;4993893;28;20812;-54
2023/01/19 09:22:57;;;;;;;14.37;11.27;;;2.20;99.90;;;;;;4993861;28;20439;-52
2023/01/19 09:25:22;;;;;;;13.77;10.73;;;2.40;99.90;;;;;;4993476;28;20999;-52
2023/01/19 09:27:48;;;;;;;11.17;8.97;;;2.50;99.90;;;;;;4993889;28;20440;-54
2023/01/19 09:30:13;;;;;;;11.57;9.20;;;2.50;99.90;;;;;;4992820;28;20169;-50
2023/01/19 09:32:39;;;;;;;13.03;8.80;;;2.40;99.90;;;;;;4993631;28;20209;-50
2023/01/19 09:35:05;;;;;;;10.40;8.93;;;2.20;99.90;;;;;;4993406;28;20177;-53
2023/01/19 09:37:31;;;;;;;10.57;8.43;;;2.20;99.90;;;;;;4993730;28;20185;-55
2023/01/19 09:39:56;;;;;;;10.90;9.27;;;2.30;99.90;;;;;;4993221;28;20762;-52
2023/01/19 09:42:42;;;;;;;12.23;9.47;;;2.40;99.90;;;;;;4993644;28;20193;-54
2023/01/19 09:45:17;;;;;;;13.67;10.13;;;2.40;99.90;;;;;;4993131;28;20558;-53
2023/01/19 09:47:44;;;;;;;12.80;10.63;;;2.30;99.90;;;;;;4993559;28;20416;-55
2023/01/19 09:50:32;;;;;;;13.37;10.90;;;2.40;99.90;;;;;;4993369;28;20413;-54
2023/01/19 09:53:06;;;;;;;13.93;11.10;;;2.50;99.90;;;;;;4993467;28;20412;-52
2023/01/19 09:55:32;;;;;;;15.47;10.87;;;2.50;99.90;;;;;;4993108;28;20412;-53
2023/01/19 09:57:58;;;;;;;15.47;9.53;;;2.30;99.90;;;;;;4993323;28;20651;-54
2023/01/19 10:00:26;;;;;;;12.17;9.00;;;2.10;99.90;;;;;;4993235;28;20495;-53
2023/01/19 10:02:57;;;;;;;11.60;9.57;;;1.90;99.90;;;;;;4993067;28;20269;-54
2023/01/19 10:05:56;;;;;;;11.37;9.67;;;1.90;99.90;;;;;;4985373;28;20932;-54
2023/01/19 10:08:39;;;;;;;12.90;9.37;;;1.70;99.90;;;;;;4971082;28;20452;-54
2023/01/19 10:11:33;;;;;;;11.50;9.50;;;1.50;99.90;;;;;;4971448;28;21026;-53
2023/01/19 10:13:59;;;;;;;10.90;8.27;;;1.50;99.90;;;;;;4971068;28;20425;-55
2023/01/19 10:16:37;;;;;;;14.23;10.03;;;1.70;99.90;;;;;;4971352;28;20693;-54
2023/01/19 10:19:25;;;;;;;13.00;9.57;;;1.90;99.90;;;;;;4971033;28;20413;-52
2023/01/19 10:21:54;;;;;;;11.20;9.10;;;2.00;99.90;;;;;;4971133;28;20441;-51
2023/01/19 10:24:22;;;;;;;10.83;9.50;;;1.90;99.90;;;;;;4970643;28;20449;-53
2023/01/19 10:26:51;;;;;;;11.00;9.37;;;1.80;99.90;;;;;;4971005;28;20448;-53
2023/01/19 10:29:36;;;;;;;12.30;9.17;;;1.80;99.90;;;;;;4970813;28;20492;-51
2023/01/19 10:32:12;;;;;;;12.07;9.33;;;1.80;99.90;;;;;;4970812;28;20456;-52
2023/01/19 10:34:38;;;;;;;11.33;8.87;;;1.70;99.90;;;;;;4970633;28;20421;-52
2023/01/19 10:37:16;;;;;;;12.70;9.33;;;1.70;99.90;;;;;;4970821;28;20544;-51
2023/01/19 10:39:45;;;;;;;11.17;8.70;;;1.80;99.90;;;;;;4970893;28;20178;-52
2023/01/19 10:42:15;;;;;;;10.50;9.17;;;2.00;99.90;;;;;;4970757;28;20433;-52
2023/01/19 10:44:44;;;;;;;10.77;8.83;;;2.30;99.90;;;;;;4981041;28;20452;-52
2023/01/19 10:47:18;;;;;;;10.17;8.67;;;2.60;99.90;;;;;;4992497;28;20440;-52
2023/01/19 10:49:44;;;;;;;11.23;9.57;;;2.80;99.90;;;;;;4992212;28;20243;-52
2023/01/19 10:52:25;;;;;;;11.63;9.23;;;2.90;99.90;;;;;;4991776;28;20430;-52
2023/01/19 10:54:50;;;;;;;12.90;9.50;;;2.70;99.90;;;;;;4992072;28;20169;-52
2023/01/19 10:57:37;;;;;;;10.60;9.00;;;2.60;99.90;;;;;;4992250;28;20623;-52
2023/01/19 11:00:05;;;;;;;11.73;8.83;;;2.50;99.90;;;;;;4992014;28;20176;-50
2023/01/19 11:02:31;;;;;;;10.80;8.03;;;2.50;99.90;;;;;;4992254;28;20231;-54
2023/01/19 11:05:22;;;;;;;9.53;7.97;;;2.50;99.90;;;;;;4991777;28;20456;-52
2023/01/19 11:07:48;;;;;;;10.93;7.67;;;2.50;99.90;;;;;;4992057;28;20308;-51
2023/01/19 11:10:19;;;;;;;8.57;7.63;;;2.50;99.90;;;;;;4991866;28;20697;-54
2023/01/19 11:12:48;;;;;;;8.60;7.33;;;2.70;99.90;;;;;;4992002;28;20673;-54
2023/01/19 11:15:19;;;;;;;19.93;13.40;;;2.90;99.90;;;;;;4991783;28;20406;-52
2023/01/19 11:17:47;;;;;;;14.50;11.10;;;3.10;99.90;;;;;;4992055;28;20180;-54
2023/01/19 11:20:21;;;;;;;7.30;6.30;;;3.10;99.90;;;;;;4992071;28;20173;-54
2023/01/19 11:22:47;;;;;;;8.77;6.97;;;2.70;99.90;;;;;;4990625;28;20546;-52
2023/01/19 11:25:28;;;;;;;8.33;7.10;;;2.60;99.90;;;;;;4991777;28;20617;-54
2023/01/19 11:27:53;;;;;;;12.13;7.43;;;2.70;99.90;;;;;;4991853;28;20165;-56
2023/01/19 11:30:24;;;;;;;9.33;7.27;;;2.50;99.90;;;;;;4991849;28;20409;-55
2023/01/19 11:32:50;;;;;;;8.47;7.10;;;2.40;99.90;;;;;;5021698;22;20224;-54
2023/01/19 11:35:37;;;;;;;9.30;7.23;;;2.30;99.90;;;;;;5007318;28;20223;-53
2023/01/19 11:38:22;;;;;;;9.10;7.00;;;2.40;99.90;;;;;;5004209;28;20172;-51
2023/01/19 11:40:56;;;;;;;9.97;7.50;;;2.60;99.90;;;;;;5010877;28;20160;-52
2023/01/19 11:43:24;;;;;;;9.80;7.50;;;2.50;99.90;;;;;;5010627;28;20195;-49
2023/01/19 11:45:50;;;;;;;9.87;7.37;;;2.30;99.90;;;;;;5010654;28;20765;-51
2023/01/19 11:48:34;;;;;;;9.10;7.30;;;2.20;99.90;;;;;;5010915;28;20442;-51
2023/01/19 11:51:04;;;;;;;8.17;6.90;;;2.40;99.90;;;;;;5010942;28;20407;-51
2023/01/19 11:53:34;;;;;;;8.40;6.30;;;2.60;99.90;;;;;;5009370;28;20213;-50
2023/01/19 11:56:07;;;;;;;8.23;6.93;;;2.40;99.90;;;;;;5011004;28;20411;-51
2023/01/19 11:58:37;;;;;;;8.13;6.50;;;2.30;99.90;;;;;;5010938;28;20172;-52
2023/01/19 12:01:19;;;;;;;8.57;6.83;;;2.50;99.90;;;;;;5011110;28;20275;-49
2023/01/19 12:04:03;;;;;;;8.13;5.57;;;2.80;99.90;;;;;;5012081;28;20189;-51
2023/01/19 12:06:33;;;;;;;6.73;5.63;;;2.90;99.90;;;;;;5014657;28;20168;-50
2023/01/19 12:09:02;;;;;;;8.57;6.00;;;2.80;99.90;;;;;;5026935;28;20176;-51
2023/01/19 12:11:36;;;;;;;7.20;6.20;;;2.80;99.90;;;;;;5034156;28;20661;-52
2023/01/19 12:14:03;;;;;;;9.07;5.97;;;2.80;99.90;;;;;;5034048;28;20289;-50
2023/01/19 12:16:31;;;;;;;9.07;5.83;;;2.80;99.90;;;;;;5034289;28;20183;-52
2023/01/19 12:18:59;;;;;;;9.20;5.70;;;2.80;99.90;;;;;;5034298;28;20206;-51
2023/01/19 12:21:25;;;;;;;8.80;5.90;;;2.90;99.90;;;;;;5034102;28;20214;-52
2023/01/19 12:24:09;;;;;;;6.37;4.97;;;2.90;99.90;;;;;;5033819;28;20196;-53
2023/01/19 12:26:45;;;;;;;6.63;5.00;;;2.90;99.90;;;;;;5033995;28;20167;-53
2023/01/19 12:29:21;;;;;;;5.40;4.90;;;2.90;99.90;;;;;;5034164;28;20632;-52
2023/01/19 12:32:12;;;;;;;5.70;5.00;;;3.00;99.90;;;;;;5033851;28;20237;-52
2023/01/19 12:34:41;;;;;;;5.40;4.80;;;3.40;99.90;;;;;;5033574;28;20271;-53
2023/01/19 12:37:30;;;;;;;6.10;4.73;;;3.70;99.90;;;;;;5033721;28;20178;-53
2023/01/19 12:40:00;;;;;;;6.50;4.70;;;3.90;99.90;;;;;;5033986;28;20567;-53
2023/01/19 12:42:27;;;;;;;6.97;5.17;;;4.10;99.90;;;;;;5023941;28;20196;-57
2023/01/19 12:45:15;;;;;;;5.93;5.00;;;5.10;99.90;;;;;;5017262;28;20286;-51
2023/01/19 12:47:51;;;;;;;6.33;5.00;;;3.90;99.90;;;;;;5033587;28;20206;-53
2023/01/19 12:50:19;;;;;;;7.53;5.47;;;3.80;99.90;;;;;;5033758;28;20164;-56
2023/01/19 12:52:56;;;;;;;7.47;5.50;;;3.60;99.90;;;;;;5033469;28;20176;-52
2023/01/19 12:55:30;;;;;;;6.40;5.13;;;3.80;99.90;;;;;;5033443;28;20159;-53
2023/01/19 12:58:03;;;;;;;6.20;4.87;;;4.10;99.90;;;;;;5033427;28;20195;-49
2023/01/19 13:00:41;;;;;;;5.67;5.00;;;4.40;99.90;;;;;;5033646;28;20160;-51